createdAt,value
2023-05-06T00:01:43.363Z,5.65
2023-05-06T00:04:10.053Z,5.38
2023-05-06T00:06:36.867Z,6.00
2023-05-06T00:09:03.330Z,5.18
2023-05-06T00:11:29.875Z,3.42
2023-05-06T00:13:56.636Z,6.03
2023-05-06T00:16:25.930Z,5.22
2023-05-06T00:18:53.201Z,8.32
2023-05-06T00:21:19.903Z,5.00
2023-05-06T00:23:46.482Z,5.40
2023-05-06T00:26:13.052Z,6.80
2023-05-06T00:28:39.536Z,5.72
2023-05-06T00:31:06.130Z,5.45
2023-05-06T00:33:32.582Z,5.28
2023-05-06T00:35:58.994Z,5.55
2023-05-06T00:38:26.009Z,5.95
2023-05-06T00:40:52.405Z,6.38
2023-05-06T00:43:18.961Z,10.60
2023-05-06T00:45:45.497Z,6.53
2023-05-06T00:48:12.139Z,9.77
2023-05-06T00:50:39.827Z,4.00
2023-05-06T00:53:08.121Z,8.93
2023-05-06T00:55:35.586Z,11.63
2023-05-06T00:58:02.292Z,4.95
2023-05-06T01:00:28.724Z,8.68
2023-05-06T01:02:55.359Z,9.52
2023-05-06T01:05:22.955Z,6.32
2023-05-06T01:07:49.520Z,4.93
2023-05-06T01:10:21.491Z,8.20
2023-05-06T01:13:02.147Z,7.90
2023-05-06T01:15:44.784Z,6.63
2023-05-06T01:18:12.459Z,8.52
2023-05-06T01:20:41.985Z,6.30
2023-05-06T01:23:12.515Z,11.32
2023-05-06T01:25:39.148Z,6.32
2023-05-06T01:28:10.107Z,7.25
2023-05-06T01:30:40.686Z,8.50
2023-05-06T01:33:14.975Z,5.82
2023-05-06T01:35:44.423Z,7.60
2023-05-06T01:38:17.273Z,7.63
2023-05-06T01:40:44.976Z,9.80
2023-05-06T01:43:12.414Z,8.13
2023-05-06T01:45:39.441Z,6.68
2023-05-06T01:48:06.786Z,4.68
2023-05-06T01:50:33.801Z,4.30
2023-05-06T01:53:02.878Z,5.47
2023-05-06T01:55:29.514Z,5.35
2023-05-06T01:57:58.995Z,7.13
2023-05-06T02:00:26.426Z,4.85
2023-05-06T02:02:53.057Z,5.63
2023-05-06T02:05:19.873Z,5.65
2023-05-06T02:07:51.243Z,4.72
2023-05-06T02:10:19.082Z,4.68
2023-05-06T02:12:51.008Z,6.63
2023-05-06T02:15:17.516Z,4.43
2023-05-06T02:17:44.015Z,5.60
2023-05-06T02:20:10.840Z,4.57
2023-05-06T02:22:37.368Z,9.75
2023-05-06T02:25:04.099Z,5.35
2023-05-06T02:27:30.834Z,3.90
2023-05-06T02:29:57.278Z,6.07
2023-05-06T02:32:23.751Z,6.80
2023-05-06T02:34:50.192Z,5.88
2023-05-06T02:37:16.702Z,4.47
2023-05-06T02:39:43.126Z,6.22
2023-05-06T02:42:10.639Z,7.97
2023-05-06T02:44:38.389Z,6.35
2023-05-06T02:47:04.905Z,6.55
2023-05-06T02:49:31.368Z,6.28
2023-05-06T02:51:57.843Z,6.40
2023-05-06T02:54:24.271Z,5.50
2023-05-06T02:56:50.642Z,3.60
2023-05-06T02:59:17.173Z,3.92
2023-05-06T03:01:43.628Z,3.53
2023-05-06T03:04:10.161Z,7.10
2023-05-06T03:06:36.657Z,7.97
2023-05-06T03:09:04.973Z,13.68
2023-05-06T03:11:32.067Z,6.53
2023-05-06T03:14:02.162Z,6.18
2023-05-06T03:16:28.688Z,6.38
2023-05-06T03:18:57.752Z,6.85
2023-05-06T03:21:24.480Z,6.32
2023-05-06T03:23:52.297Z,7.45
2023-05-06T03:26:21.398Z,6.10
2023-05-06T03:28:47.999Z,5.55
2023-05-06T03:31:17.972Z,6.57
2023-05-06T03:33:44.550Z,8.75
2023-05-06T03:36:14.044Z,8.30
2023-05-06T03:38:42.256Z,6.13
2023-05-06T03:41:09.358Z,6.47
2023-05-06T03:43:36.090Z,6.50
2023-05-06T03:46:03.689Z,5.38
2023-05-06T03:48:32.993Z,4.32
2023-05-06T03:50:59.671Z,8.23
2023-05-06T03:53:27.050Z,6.68
2023-05-06T03:55:53.542Z,3.67
2023-05-06T03:58:20.250Z,4.70
2023-05-06T04:00:46.792Z,5.40
2023-05-06T04:03:13.383Z,6.60
2023-05-06T04:05:45.310Z,4.68
2023-05-06T04:08:13.846Z,4.80
2023-05-06T04:10:40.751Z,4.35
2023-05-06T04:13:14.585Z,3.70
2023-05-06T04:15:43.725Z,4.22
2023-05-06T04:18:19.060Z,5.00
2023-05-06T04:20:53.505Z,5.78
2023-05-06T04:23:20.154Z,4.00
2023-05-06T04:25:49.288Z,4.38
2023-05-06T04:28:16.878Z,5.05
2023-05-06T04:30:46.266Z,4.28
2023-05-06T04:33:13.606Z,3.47
2023-05-06T04:35:40.467Z,5.00
2023-05-06T04:38:07.576Z,6.20
2023-05-06T04:40:35.286Z,5.53
2023-05-06T04:43:02.981Z,5.05
2023-05-06T04:45:30.425Z,2.92
2023-05-06T04:47:56.978Z,4.78
2023-05-06T04:50:24.376Z,4.05
2023-05-06T04:52:52.151Z,6.78
2023-05-06T04:55:19.962Z,5.15
2023-05-06T04:57:50.839Z,6.20
2023-05-06T05:00:18.052Z,6.00
2023-05-06T05:02:44.795Z,4.20
2023-05-06T05:05:15.006Z,4.65
2023-05-06T05:07:44.406Z,3.85
2023-05-06T05:10:11.043Z,7.55
2023-05-06T05:12:38.596Z,6.32
2023-05-06T05:15:05.354Z,7.65
2023-05-06T05:17:32.228Z,7.20
2023-05-06T05:19:59.131Z,3.70
2023-05-06T05:22:26.894Z,8.75
2023-05-06T05:24:53.446Z,8.70
2023-05-06T05:27:20.446Z,7.07
2023-05-06T05:29:46.953Z,6.95
2023-05-06T05:32:13.553Z,7.95
2023-05-06T05:34:40.292Z,7.75
2023-05-06T05:37:08.005Z,9.30
2023-05-06T05:39:34.588Z,7.05
2023-05-06T05:42:01.116Z,4.93
2023-05-06T05:44:28.514Z,9.50
2023-05-06T05:46:55.306Z,7.75
2023-05-06T05:49:22.558Z,7.88
2023-05-06T05:51:51.510Z,8.52
2023-05-06T05:54:19.817Z,5.60
2023-05-06T05:56:46.433Z,9.48
2023-05-06T05:59:13.704Z,9.35
2023-05-06T06:01:41.075Z,6.35
2023-05-06T06:04:08.703Z,7.30
2023-05-06T06:06:35.184Z,6.38
2023-05-06T06:09:01.966Z,8.32
2023-05-06T06:11:29.093Z,6.10
2023-05-06T06:13:56.751Z,7.93
2023-05-06T06:16:23.877Z,5.35
2023-05-06T06:18:50.507Z,9.90
2023-05-06T06:21:17.829Z,5.78
2023-05-06T06:23:44.754Z,8.82
2023-05-06T06:26:12.431Z,6.57
2023-05-06T06:28:39.286Z,5.57
2023-05-06T06:31:05.746Z,7.18
2023-05-06T06:33:32.675Z,6.00
2023-05-06T06:35:59.135Z,8.95
2023-05-06T06:38:26.007Z,6.93
2023-05-06T06:40:52.469Z,6.35
2023-05-06T06:43:19.967Z,7.22
2023-05-06T06:45:53.886Z,5.75
2023-05-06T06:48:20.680Z,6.32
2023-05-06T06:50:47.242Z,6.93
2023-05-06T06:53:13.738Z,6.38
2023-05-06T06:55:42.841Z,5.35
2023-05-06T06:58:09.296Z,5.85
2023-05-06T07:00:35.769Z,6.78
2023-05-06T07:03:02.333Z,6.15
2023-05-06T07:05:28.865Z,5.25
2023-05-06T07:07:55.711Z,7.40
2023-05-06T07:10:22.463Z,8.82
2023-05-06T07:12:49.006Z,6.72
2023-05-06T07:15:15.540Z,8.85
2023-05-06T07:17:42.011Z,5.35
2023-05-06T07:20:08.829Z,6.13
2023-05-06T07:22:35.784Z,7.03
2023-05-06T07:25:02.202Z,7.20
2023-05-06T07:27:30.348Z,8.50
2023-05-06T07:29:56.910Z,6.93
2023-05-06T07:32:23.531Z,7.00
2023-05-06T07:34:50.090Z,8.25
2023-05-06T07:37:16.536Z,4.60
2023-05-06T07:39:43.149Z,5.75
2023-05-06T07:42:12.956Z,6.55
2023-05-06T07:44:39.970Z,6.30
2023-05-06T07:47:06.896Z,6.00
2023-05-06T07:49:34.999Z,5.45
2023-05-06T07:52:01.509Z,4.55
2023-05-06T07:54:28.087Z,4.30
2023-05-06T07:56:54.527Z,5.28
2023-05-06T07:59:21.065Z,5.63
2023-05-06T08:01:47.542Z,5.07
2023-05-06T08:04:14.202Z,4.05
2023-05-06T08:06:40.776Z,4.05
2023-05-06T08:09:07.285Z,3.63
2023-05-06T08:11:33.762Z,3.30
2023-05-06T08:14:00.235Z,5.90
2023-05-06T08:16:26.722Z,3.45
2023-05-06T08:18:53.240Z,5.40
2023-05-06T08:21:19.735Z,5.97
2023-05-06T08:23:46.364Z,4.32
2023-05-06T08:26:13.011Z,3.78
2023-05-06T08:28:39.434Z,4.05
2023-05-06T08:31:05.997Z,4.35
2023-05-06T08:33:32.528Z,5.78
2023-05-06T08:35:59.083Z,7.53
2023-05-06T08:38:26.001Z,11.05
2023-05-06T08:40:53.169Z,10.20
2023-05-06T08:43:24.798Z,7.88
2023-05-06T08:45:51.301Z,8.98
2023-05-06T08:48:17.855Z,7.78
2023-05-06T08:50:44.463Z,6.90
2023-05-06T08:53:12.448Z,8.05
2023-05-06T08:55:40.648Z,7.18
2023-05-06T08:58:07.548Z,8.50
2023-05-06T09:00:34.054Z,4.82
2023-05-06T09:03:01.670Z,6.00
2023-05-06T09:05:28.795Z,6.50
2023-05-06T09:07:55.551Z,7.00
2023-05-06T09:10:22.314Z,6.80
2023-05-06T09:12:48.776Z,4.50
2023-05-06T09:15:15.233Z,4.90
2023-05-06T09:17:41.958Z,4.22
2023-05-06T09:20:11.531Z,3.92
2023-05-06T09:22:40.119Z,3.47
2023-05-06T09:25:07.242Z,2.40
2023-05-06T09:27:34.510Z,2.85
2023-05-06T09:30:01.681Z,2.70
2023-05-06T09:32:28.965Z,2.92
2023-05-06T09:34:56.068Z,2.05
2023-05-06T09:37:22.852Z,3.13
2023-05-06T09:39:53.309Z,2.47
2023-05-06T09:42:21.713Z,2.75
2023-05-06T09:44:48.250Z,3.30
2023-05-06T09:47:14.882Z,2.83
2023-05-06T09:49:42.030Z,2.70
2023-05-06T09:52:08.512Z,2.88
2023-05-06T09:54:35.564Z,4.47
2023-05-06T09:57:03.745Z,2.97
2023-05-06T09:59:30.683Z,2.30
2023-05-06T10:01:58.610Z,3.70
2023-05-06T10:04:26.685Z,2.50
2023-05-06T10:06:57.914Z,1.77
2023-05-06T10:09:25.008Z,2.58
2023-05-06T10:11:52.194Z,1.73
2023-05-06T10:14:19.187Z,1.42
2023-05-06T10:16:49.188Z,1.23
2023-05-06T10:19:21.201Z,1.63
2023-05-06T10:21:50.531Z,2.38
2023-05-06T10:24:19.133Z,3.45
2023-05-06T10:26:46.788Z,2.10
2023-05-06T10:29:13.407Z,1.98
2023-05-06T10:31:55.712Z,1.60
2023-05-06T10:34:22.694Z,1.67
2023-05-06T10:36:51.967Z,1.80
2023-05-06T10:39:18.850Z,1.30
2023-05-06T10:41:45.409Z,1.50
2023-05-06T10:44:12.846Z,2.00
2023-05-06T10:47:05.658Z,1.63
2023-05-06T10:49:32.120Z,1.50
2023-05-06T10:52:14.519Z,2.08
2023-05-06T10:54:48.184Z,1.52
2023-05-06T10:57:14.754Z,1.42
2023-05-06T10:59:45.509Z,1.35
2023-05-06T11:02:12.328Z,2.88
2023-05-06T11:04:39.353Z,1.70
2023-05-06T11:07:08.930Z,1.30
2023-05-06T11:09:53.413Z,4.50
2023-05-06T11:12:20.648Z,1.15
2023-05-06T11:14:47.120Z,0.80
2023-05-06T11:17:30.578Z,1.75
2023-05-06T11:20:18.080Z,0.77
2023-05-06T11:22:44.547Z,0.80
2023-05-06T11:25:11.111Z,0.80
2023-05-06T11:27:37.614Z,1.30
2023-05-06T11:30:04.565Z,2.20
2023-05-06T11:32:32.591Z,1.67
2023-05-06T11:34:59.268Z,1.05
2023-05-06T11:37:26.341Z,1.52
2023-05-06T11:39:53.042Z,0.98
2023-05-06T11:42:26.746Z,0.70
2023-05-06T11:44:54.993Z,1.35
2023-05-06T11:47:22.652Z,1.00
2023-05-06T11:49:54.159Z,1.02
2023-05-06T11:52:23.621Z,0.70
2023-05-06T11:54:51.188Z,1.00
2023-05-06T11:57:19.537Z,0.60
2023-05-06T11:59:46.177Z,0.68
2023-05-06T12:02:13.382Z,1.75
2023-05-06T12:04:45.153Z,0.90
2023-05-06T12:07:12.699Z,1.52
2023-05-06T12:09:40.509Z,2.00
2023-05-06T12:12:07.710Z,1.48
2023-05-06T12:14:35.222Z,0.60
2023-05-06T12:17:01.877Z,0.90
2023-05-06T12:19:28.964Z,0.80
2023-05-06T12:21:55.703Z,1.40
2023-05-06T12:24:31.244Z,0.60
2023-05-06T12:26:57.751Z,1.77
2023-05-06T12:29:24.247Z,0.63
2023-05-06T12:32:06.255Z,0.75
2023-05-06T12:34:36.698Z,0.68
2023-05-06T12:37:03.957Z,0.75
2023-05-06T12:39:34.573Z,0.47
2023-05-06T12:42:01.197Z,1.35
2023-05-06T12:44:32.479Z,1.63
2023-05-06T12:46:59.705Z,0.40
2023-05-06T12:49:26.222Z,0.40
2023-05-06T12:52:09.377Z,1.20
2023-05-06T12:54:36.388Z,0.60
2023-05-06T12:57:03.269Z,1.42
2023-05-06T12:59:29.845Z,0.38
2023-05-06T13:01:56.372Z,0.63
2023-05-06T13:04:23.146Z,0.30
2023-05-06T13:06:50.465Z,0.20
2023-05-06T13:09:17.444Z,0.80
2023-05-06T13:11:44.036Z,0.52
2023-05-06T13:14:10.994Z,0.20
2023-05-06T13:16:37.794Z,0.10
2023-05-06T13:19:10.845Z,0.40
2023-05-06T13:21:42.470Z,0.47
2023-05-06T13:24:09.353Z,0.30
2023-05-06T13:26:36.101Z,0.52
2023-05-06T13:29:02.853Z,0.32
2023-05-06T13:31:29.342Z,0.45
2023-05-06T13:33:56.357Z,1.60
2023-05-06T13:36:23.225Z,1.13
2023-05-06T13:38:49.777Z,0.45
2023-05-06T13:41:16.436Z,0.28
2023-05-06T13:43:42.928Z,0.20
2023-05-06T13:46:09.801Z,0.50
2023-05-06T13:48:36.374Z,0.52
2023-05-06T13:51:02.942Z,0.40
2023-05-06T13:53:30.403Z,0.40
2023-05-06T13:55:56.833Z,0.60
2023-05-06T13:58:23.396Z,0.45
2023-05-06T14:00:50.160Z,0.30
2023-05-06T14:03:16.600Z,1.40
2023-05-06T14:05:43.011Z,0.40
2023-05-06T14:08:09.477Z,0.75
2023-05-06T14:10:36.038Z,0.52
2023-05-06T14:13:04.565Z,0.45
2023-05-06T14:15:32.766Z,0.82
2023-05-06T14:17:59.279Z,0.55
2023-05-06T14:20:25.788Z,0.40
2023-05-06T14:22:52.256Z,0.50
2023-05-06T14:25:18.687Z,0.55
2023-05-06T14:27:45.540Z,0.40
2023-05-06T14:30:12.241Z,0.55
2023-05-06T14:32:38.750Z,0.50
2023-05-06T14:35:05.589Z,0.38
2023-05-06T14:37:32.154Z,0.70
2023-05-06T14:39:58.624Z,0.90
2023-05-06T14:42:25.145Z,0.55
2023-05-06T14:44:51.653Z,0.60
2023-05-06T14:47:18.117Z,1.20
2023-05-06T14:49:44.579Z,0.40
2023-05-06T14:52:11.032Z,0.38
2023-05-06T14:54:42.208Z,0.63
2023-05-06T14:57:09.622Z,0.85
2023-05-06T14:59:36.230Z,0.55
2023-05-06T15:02:03.476Z,0.68
2023-05-06T15:04:30.433Z,0.35
2023-05-06T15:06:57.832Z,0.40
2023-05-06T15:09:25.384Z,0.28
2023-05-06T15:11:51.904Z,0.40
2023-05-06T15:14:18.319Z,0.50
2023-05-06T15:16:44.866Z,0.63
2023-05-06T15:19:11.388Z,0.55
2023-05-06T15:21:37.893Z,0.40
2023-05-06T15:24:07.199Z,0.57
2023-05-06T15:26:33.674Z,0.57
2023-05-06T15:29:00.149Z,0.80
2023-05-06T15:31:26.855Z,1.02
2023-05-06T15:33:53.461Z,1.05
2023-05-06T15:36:19.906Z,1.02
2023-05-06T15:38:52.384Z,1.30
2023-05-06T15:41:19.414Z,0.90
2023-05-06T15:43:45.900Z,1.20
2023-05-06T15:46:12.434Z,1.38
2023-05-06T15:48:38.902Z,1.50
2023-05-06T15:51:06.219Z,1.83
2023-05-06T15:53:32.752Z,1.75
2023-05-06T15:58:28.530Z,2.10
2023-05-06T16:00:54.930Z,1.30
2023-05-06T16:03:22.673Z,1.15
2023-05-06T16:05:49.371Z,1.00
2023-05-06T16:08:15.835Z,1.10
2023-05-06T16:10:42.307Z,0.90
2023-05-06T16:13:08.823Z,1.10
2023-05-06T16:15:35.656Z,1.05
2023-05-06T16:18:02.223Z,0.90
2023-05-06T16:20:29.678Z,2.10
2023-05-06T16:22:56.261Z,1.35
2023-05-06T16:25:23.042Z,1.35
2023-05-06T16:27:49.473Z,1.30
2023-05-06T16:30:15.993Z,1.30
2023-05-06T16:32:42.538Z,0.73
2023-05-06T16:35:09.366Z,1.67
2023-05-06T16:37:36.391Z,2.08
2023-05-06T16:40:03.069Z,1.20
2023-05-06T16:42:29.552Z,1.25
2023-05-06T16:44:56.004Z,1.23
2023-05-06T16:47:25.525Z,1.90
2023-05-06T16:49:52.436Z,1.48
2023-05-06T16:52:19.226Z,1.17
2023-05-06T16:54:45.732Z,1.95
2023-05-06T16:57:12.221Z,1.65
2023-05-06T16:59:38.642Z,1.83
2023-05-06T17:02:05.231Z,1.42
2023-05-06T17:04:31.723Z,1.48
2023-05-06T17:06:58.175Z,0.80
2023-05-06T17:09:24.631Z,1.10
2023-05-06T17:11:51.152Z,0.88
2023-05-06T17:14:19.775Z,0.98
2023-05-06T17:16:46.816Z,1.65
2023-05-06T17:19:13.455Z,0.68
2023-05-06T17:21:40.097Z,1.20
2023-05-06T17:24:06.656Z,0.60
2023-05-06T17:26:33.726Z,0.45
2023-05-06T17:29:00.586Z,0.65
2023-05-06T17:31:27.242Z,0.65
2023-05-06T17:33:53.817Z,1.95
2023-05-06T17:36:20.817Z,1.13
2023-05-06T17:38:47.679Z,0.85
2023-05-06T17:41:14.129Z,1.17
2023-05-06T17:43:41.430Z,0.60
2023-05-06T17:46:09.361Z,0.70
2023-05-06T17:48:36.041Z,1.45
2023-05-06T17:51:02.722Z,0.68
2023-05-06T17:53:29.644Z,0.63
2023-05-06T17:55:56.251Z,1.30
2023-05-06T17:58:22.826Z,1.20
2023-05-06T18:00:49.299Z,1.23
2023-05-06T18:03:15.873Z,0.75
2023-05-06T18:05:42.420Z,1.60
2023-05-06T18:08:09.575Z,1.70
2023-05-06T18:10:36.158Z,1.13
2023-05-06T18:13:02.747Z,1.20
2023-05-06T18:15:29.239Z,1.02
2023-05-06T18:17:55.937Z,1.10
2023-05-06T18:20:22.546Z,0.85
2023-05-06T18:22:49.000Z,0.90
2023-05-06T18:25:15.873Z,0.75
2023-05-06T18:27:42.379Z,0.70
2023-05-06T18:30:09.014Z,1.65
2023-05-06T18:32:35.745Z,1.52
2023-05-06T18:35:02.289Z,1.42
2023-05-06T18:37:29.430Z,1.42
2023-05-06T18:39:56.002Z,2.08
2023-05-06T18:42:22.873Z,1.75
2023-05-06T18:44:50.449Z,1.95
2023-05-06T18:47:18.036Z,1.73
2023-05-06T18:49:44.641Z,2.03
2023-05-06T18:52:14.368Z,1.35
2023-05-06T18:54:41.366Z,1.85
2023-05-06T18:57:07.881Z,3.13
2023-05-06T18:59:34.410Z,1.77
2023-05-06T19:02:01.927Z,1.77
2023-05-06T19:04:29.154Z,2.15
2023-05-06T19:06:55.659Z,1.88
2023-05-06T19:09:22.176Z,3.40
2023-05-06T19:11:48.655Z,2.97
2023-05-06T19:14:15.296Z,3.00
2023-05-06T19:16:41.926Z,3.33
2023-05-06T19:19:08.707Z,3.83
2023-05-06T19:21:35.556Z,2.40
2023-05-06T19:24:02.090Z,1.63
2023-05-06T19:26:28.543Z,2.28
2023-05-06T19:28:55.130Z,2.00
2023-05-06T19:31:21.603Z,2.08
2023-05-06T19:33:48.099Z,1.70
2023-05-06T19:36:21.210Z,1.85
2023-05-06T19:38:47.800Z,2.17
2023-05-06T19:41:14.421Z,3.28
2023-05-06T19:43:42.162Z,3.50
2023-05-06T19:46:09.318Z,1.80
2023-05-06T19:48:36.885Z,1.95
2023-05-06T19:51:03.488Z,2.22
2023-05-06T19:53:29.971Z,1.30
2023-05-06T19:55:57.848Z,2.40
2023-05-06T19:58:24.455Z,2.33
2023-05-06T20:00:51.084Z,2.10
2023-05-06T20:03:18.012Z,3.38
2023-05-06T20:05:44.644Z,3.92
2023-05-06T20:08:11.437Z,4.32
2023-05-06T20:10:38.266Z,2.75
2023-05-06T20:13:04.810Z,2.13
2023-05-06T20:15:31.862Z,2.95
2023-05-06T20:17:58.418Z,2.63
2023-05-06T20:20:31.996Z,3.90
2023-05-06T20:22:58.451Z,2.38
2023-05-06T20:25:26.220Z,2.83
2023-05-06T20:27:52.874Z,3.63
2023-05-06T20:30:19.412Z,4.00
2023-05-06T20:32:46.276Z,4.15
2023-05-06T20:35:13.215Z,4.05
2023-05-06T20:37:41.205Z,5.57
2023-05-06T20:40:07.985Z,3.53
2023-05-06T20:42:34.559Z,3.28
2023-05-06T20:45:01.109Z,2.80
2023-05-06T20:47:27.662Z,2.53
2023-05-06T20:49:54.339Z,2.10
2023-05-06T20:52:21.727Z,2.17
2023-05-06T20:54:48.675Z,3.05
2023-05-06T20:57:16.204Z,3.10
2023-05-06T20:59:42.912Z,2.40
2023-05-06T21:02:09.550Z,2.72
2023-05-06T21:04:36.333Z,3.28
2023-05-06T21:07:02.825Z,3.20
2023-05-06T21:09:29.541Z,3.17
2023-05-06T21:11:56.319Z,3.22
2023-05-06T21:14:24.732Z,2.83
2023-05-06T21:16:51.985Z,2.60
2023-05-06T21:19:18.646Z,3.33
2023-05-06T21:21:45.468Z,2.58
2023-05-06T21:24:12.868Z,2.22
2023-05-06T21:26:39.843Z,2.13
2023-05-06T21:29:06.364Z,2.03
2023-05-06T21:31:32.974Z,2.40
2023-05-06T21:33:59.557Z,2.22
2023-05-06T21:36:26.127Z,2.67
2023-05-06T21:39:00.000Z,2.90
2023-05-06T21:41:26.490Z,2.90
2023-05-06T21:43:52.896Z,2.95
2023-05-06T21:46:19.394Z,2.45
2023-05-06T21:48:45.884Z,3.42
2023-05-06T21:51:12.342Z,2.65
2023-05-06T21:53:38.783Z,3.65
2023-05-06T21:56:05.376Z,2.00
2023-05-06T21:58:31.792Z,2.65
2023-05-06T22:00:58.262Z,2.53
2023-05-06T22:03:24.816Z,2.05
2023-05-06T22:05:51.283Z,1.92
2023-05-06T22:08:17.700Z,1.80
2023-05-06T22:10:44.250Z,1.90
2023-05-06T22:13:11.006Z,1.80
2023-05-06T22:15:37.603Z,1.98
2023-05-06T22:18:04.273Z,2.35
2023-05-06T22:20:30.813Z,1.80
2023-05-06T22:22:57.229Z,2.08
2023-05-06T22:25:23.740Z,1.90
2023-05-06T22:27:50.181Z,1.63
2023-05-06T22:30:17.161Z,1.75
2023-05-06T22:32:43.622Z,1.95
2023-05-06T22:35:10.296Z,3.42
2023-05-06T22:37:36.864Z,2.05
2023-05-06T22:40:03.493Z,1.98
2023-05-06T22:42:29.970Z,1.70
2023-05-06T22:44:56.486Z,1.65
2023-05-06T22:47:22.969Z,2.20
2023-05-06T22:49:49.433Z,1.70
2023-05-06T22:52:16.953Z,2.05
2023-05-06T22:54:43.506Z,2.13
2023-05-06T22:57:10.070Z,1.55
2023-05-06T22:59:36.576Z,1.95
2023-05-06T23:02:03.528Z,2.20
2023-05-06T23:04:30.095Z,2.05
2023-05-06T23:06:57.391Z,2.45
2023-05-06T23:09:23.871Z,1.75
2023-05-06T23:11:50.338Z,2.10
2023-05-06T23:14:17.337Z,2.00
2023-05-06T23:16:43.913Z,2.50
2023-05-06T23:19:10.416Z,2.17
2023-05-06T23:21:36.907Z,2.45
2023-05-06T23:24:03.489Z,2.55
2023-05-06T23:26:29.924Z,2.25
2023-05-06T23:28:56.456Z,2.72
2023-05-06T23:31:22.971Z,2.05
2023-05-06T23:33:49.510Z,1.67
2023-05-06T23:36:16.096Z,2.10
2023-05-06T23:38:42.539Z,2.33
2023-05-06T23:41:09.031Z,1.63
2023-05-06T23:43:35.745Z,2.33
2023-05-06T23:46:02.250Z,2.53
2023-05-06T23:48:28.763Z,2.75
2023-05-06T23:50:55.205Z,2.13
2023-05-06T23:53:21.714Z,2.67
2023-05-06T23:55:48.580Z,2.22
2023-05-06T23:58:15.066Z,2.67
